createdAt,value
2018-06-10T00:00:47.561Z,43.87
2018-06-10T00:03:16.137Z,50.87
2018-06-10T00:05:44.565Z,55.03
2018-06-10T00:08:13.019Z,48.33
2018-06-10T00:10:41.463Z,47.87
2018-06-10T00:13:09.898Z,53.47
2018-06-10T00:15:38.377Z,62.77
2018-06-10T00:18:06.799Z,43.37
2018-06-10T00:20:35.239Z,49.00
2018-06-10T00:23:03.829Z,54.33
2018-06-10T00:25:32.261Z,53.07
2018-06-10T00:28:00.751Z,45.07
2018-06-10T00:30:29.181Z,48.80
2018-06-10T00:32:57.609Z,46.97
2018-06-10T00:35:26.023Z,49.17
2018-06-10T00:37:54.457Z,42.87
2018-06-10T00:40:22.916Z,38.80
2018-06-10T00:42:51.324Z,38.30
2018-06-10T00:45:19.715Z,51.07
2018-06-10T00:47:48.134Z,47.83
2018-06-10T00:50:16.656Z,49.27
2018-06-10T00:52:45.329Z,46.33
2018-06-10T00:55:13.746Z,42.90
2018-06-10T00:57:42.159Z,41.83
2018-06-10T01:00:10.617Z,45.57
2018-06-10T01:02:39.087Z,48.63
2018-06-10T01:05:07.555Z,43.70
2018-06-10T01:07:36.003Z,53.37
2018-06-10T01:10:04.458Z,58.17
2018-06-10T01:12:32.907Z,49.63
2018-06-10T01:15:01.337Z,54.30
2018-06-10T01:17:29.891Z,51.03
2018-06-10T01:19:58.417Z,52.17
2018-06-10T01:22:26.870Z,60.70
2018-06-10T01:24:55.307Z,53.70
2018-06-10T01:27:23.867Z,55.80
2018-06-10T01:31:21.797Z,51.63
2018-06-10T01:33:50.227Z,51.50
2018-06-10T01:36:18.648Z,53.67
2018-06-10T01:38:47.079Z,56.13
2018-06-10T01:41:15.498Z,54.17
2018-06-10T01:43:43.928Z,51.30
2018-06-10T01:46:12.380Z,56.70
2018-06-10T01:48:40.801Z,51.17
2018-06-10T01:51:09.204Z,48.67
2018-06-10T01:53:37.763Z,55.77
2018-06-10T01:56:06.191Z,53.80
2018-06-10T01:58:34.644Z,53.57
2018-06-10T02:01:03.098Z,62.70
2018-06-10T02:03:31.471Z,60.53
2018-06-10T02:05:59.907Z,57.73
2018-06-10T02:08:28.324Z,56.67
2018-06-10T02:10:57.190Z,64.30
2018-06-10T02:13:25.678Z,62.67
2018-06-10T02:15:54.107Z,65.50
2018-06-10T02:18:22.532Z,66.47
2018-06-10T02:20:50.934Z,65.57
2018-06-10T02:23:19.407Z,66.17
2018-06-10T02:25:47.816Z,59.27
2018-06-10T02:28:16.252Z,58.13
2018-06-10T02:30:44.708Z,75.30
2018-06-10T02:33:13.099Z,86.60
2018-06-10T02:35:41.549Z,81.50
2018-06-10T02:38:09.995Z,86.97
2018-06-10T02:40:38.444Z,78.53
2018-06-10T02:43:07.078Z,86.73
2018-06-10T02:45:35.519Z,89.27
2018-06-10T02:48:03.985Z,84.20
2018-06-10T02:50:32.411Z,94.03
2018-06-10T02:53:00.889Z,83.77
2018-06-10T02:55:29.295Z,70.63
2018-06-10T02:57:57.724Z,81.87
2018-06-10T03:00:27.106Z,79.07
2018-06-10T03:02:55.496Z,80.97
2018-06-10T03:05:23.945Z,84.93
2018-06-10T03:07:52.342Z,81.13
2018-06-10T03:14:56.040Z,75.17
2018-06-10T03:17:24.483Z,84.07
2018-06-10T03:19:52.891Z,93.70
2018-06-10T03:22:21.422Z,69.63
2018-06-10T03:24:49.872Z,64.33
2018-06-10T03:27:18.387Z,67.43
2018-06-10T03:29:46.927Z,58.67
2018-06-10T03:32:15.349Z,60.00
2018-06-10T03:34:43.869Z,61.70
2018-06-10T03:37:12.301Z,54.90
2018-06-10T03:39:40.710Z,63.37
2018-06-10T03:42:09.167Z,55.37
2018-06-10T03:44:37.588Z,51.47
2018-06-10T03:47:06.021Z,51.17
2018-06-10T03:49:34.622Z,52.07
2018-06-10T03:52:03.137Z,48.30
2018-06-10T03:54:31.568Z,61.33
2018-06-10T03:57:00.030Z,49.30
2018-06-10T03:59:28.480Z,47.43
2018-06-10T04:01:56.900Z,45.33
2018-06-10T04:04:25.326Z,50.53
2018-06-10T04:06:53.761Z,47.17
2018-06-10T04:09:22.424Z,61.80
2018-06-10T04:11:50.900Z,44.80
2018-06-10T04:14:19.499Z,38.53
2018-06-10T04:16:47.933Z,43.37
2018-06-10T04:19:16.421Z,56.00
2018-06-10T04:21:44.828Z,44.87
2018-06-10T04:24:13.316Z,39.67
2018-06-10T04:26:42.649Z,45.83
2018-06-10T04:29:11.092Z,40.47
2018-06-10T04:31:39.516Z,43.17
2018-06-10T04:34:07.932Z,43.10
2018-06-10T04:36:36.481Z,50.17
2018-06-10T04:39:07.014Z,47.40
2018-06-10T04:41:35.468Z,38.83
2018-06-10T04:44:04.131Z,44.30
2018-06-10T04:46:32.543Z,40.13
2018-06-10T04:49:01.028Z,35.13
2018-06-10T04:51:29.535Z,37.57
2018-06-10T04:53:57.958Z,40.43
2018-06-10T04:56:26.391Z,36.30
2018-06-10T04:58:54.955Z,59.37
2018-06-10T05:01:23.432Z,46.93
2018-06-10T05:03:51.904Z,44.70
2018-06-10T05:06:20.339Z,42.83
2018-06-10T05:08:48.744Z,47.97
2018-06-10T05:11:17.171Z,47.53
2018-06-10T05:13:45.591Z,41.80
2018-06-10T05:16:14.237Z,39.10
2018-06-10T05:18:42.738Z,37.43
2018-06-10T05:21:11.170Z,45.80
2018-06-10T05:23:39.582Z,42.10
2018-06-10T05:26:08.061Z,44.90
2018-06-10T05:28:36.511Z,50.80
2018-06-10T05:32:34.300Z,57.20
2018-06-10T05:35:02.781Z,54.13
2018-06-10T05:37:31.210Z,60.00
2018-06-10T05:39:59.680Z,52.10
2018-06-10T05:42:28.116Z,57.60
2018-06-10T05:44:56.577Z,56.47
2018-06-10T05:47:25.012Z,59.63
2018-06-10T05:49:53.406Z,52.10
2018-06-10T05:52:22.047Z,57.27
2018-06-10T05:54:50.479Z,55.33
2018-06-10T05:57:18.920Z,54.33
2018-06-10T05:59:47.391Z,59.83
2018-06-10T06:02:15.844Z,58.63
2018-06-10T06:04:44.272Z,54.37
2018-06-10T06:07:12.753Z,49.10
2018-06-10T06:09:41.156Z,53.77
2018-06-10T06:12:09.564Z,49.97
2018-06-10T06:14:37.966Z,52.40
2018-06-10T06:17:06.436Z,54.50
2018-06-10T06:19:34.834Z,46.37
2018-06-10T06:22:03.252Z,62.70
2018-06-10T06:24:31.703Z,51.83
2018-06-10T06:27:00.272Z,46.83
2018-06-10T06:29:28.727Z,56.63
2018-06-10T06:31:57.171Z,55.03
2018-06-10T06:34:25.658Z,63.63
2018-06-10T06:36:54.075Z,46.70
2018-06-10T06:39:22.503Z,56.23
2018-06-10T06:41:50.967Z,55.23
2018-06-10T06:44:19.415Z,53.93
2018-06-10T06:46:47.851Z,55.60
2018-06-10T06:49:16.276Z,51.30
2018-06-10T06:51:44.711Z,54.03
2018-06-10T06:54:13.151Z,64.57
2018-06-10T06:56:41.539Z,52.70
2018-06-10T06:59:10.024Z,52.10
2018-06-10T07:01:38.827Z,54.13
2018-06-10T07:04:07.335Z,54.30
2018-06-10T07:06:35.746Z,65.67
2018-06-10T07:09:06.047Z,60.83
2018-06-10T07:11:35.047Z,59.53
2018-06-10T07:14:03.479Z,58.97
2018-06-10T07:16:32.121Z,54.83
2018-06-10T07:19:00.547Z,50.97
2018-06-10T07:21:29.184Z,44.60
2018-06-10T07:23:57.630Z,54.93
2018-06-10T07:26:26.283Z,48.70
2018-06-10T07:28:54.963Z,72.77
2018-06-10T07:31:23.403Z,54.77
2018-06-10T07:33:52.036Z,40.93
2018-06-10T07:36:20.454Z,44.10
2018-06-10T07:38:48.892Z,52.50
2018-06-10T07:41:17.494Z,40.80
2018-06-10T07:43:45.925Z,41.93
2018-06-10T07:46:14.367Z,51.73
2018-06-10T07:48:42.810Z,41.67
2018-06-10T07:51:11.370Z,45.07
2018-06-10T07:53:39.784Z,38.93
2018-06-10T07:56:08.200Z,35.07
2018-06-10T07:58:36.780Z,44.67
2018-06-10T08:01:05.220Z,34.97
2018-06-10T08:03:33.715Z,35.07
2018-06-10T08:06:02.128Z,35.00
2018-06-10T08:08:30.560Z,28.77
2018-06-10T08:10:58.966Z,43.13
2018-06-10T08:13:27.359Z,39.67
2018-06-10T08:15:55.851Z,34.20
2018-06-10T08:18:24.339Z,38.13
2018-06-10T08:20:52.837Z,30.43
2018-06-10T08:23:21.444Z,38.33
2018-06-10T08:25:50.018Z,33.57
2018-06-10T08:28:18.500Z,34.03
2018-06-10T08:30:46.926Z,39.47
2018-06-10T08:33:15.381Z,33.90
2018-06-10T08:35:43.803Z,35.03
2018-06-10T08:38:12.267Z,39.70
2018-06-10T08:40:40.722Z,41.03
2018-06-10T08:43:09.168Z,39.83
2018-06-10T08:45:37.627Z,35.63
2018-06-10T08:48:06.111Z,32.63
2018-06-10T08:50:34.674Z,38.60
2018-06-10T08:53:03.076Z,36.30
2018-06-10T08:55:31.549Z,43.67
2018-06-10T08:57:59.983Z,32.63
2018-06-10T09:00:28.400Z,38.83
2018-06-10T09:02:56.950Z,33.33
2018-06-10T09:05:25.268Z,36.17
2018-06-10T09:07:53.695Z,33.13
2018-06-10T09:10:22.207Z,37.83
2018-06-10T09:12:50.756Z,42.50
2018-06-10T09:15:19.511Z,35.43
2018-06-10T09:17:47.897Z,34.27
2018-06-10T09:20:16.310Z,38.17
2018-06-10T09:22:44.784Z,34.33
2018-06-10T09:25:13.476Z,36.70
2018-06-10T09:27:41.895Z,38.33
2018-06-10T09:30:10.343Z,37.93
2018-06-10T09:32:38.756Z,30.47
2018-06-10T09:35:07.161Z,24.67
2018-06-10T09:37:35.715Z,24.93
2018-06-10T09:40:04.425Z,25.67
2018-06-10T09:42:32.880Z,24.33
2018-06-10T09:45:01.319Z,24.43
2018-06-10T09:47:29.852Z,29.60
2018-06-10T09:49:58.310Z,26.10
2018-06-10T09:52:27.046Z,26.30
2018-06-10T09:54:55.501Z,28.00
2018-06-10T09:57:23.983Z,26.73
2018-06-10T10:01:21.779Z,23.93
2018-06-10T10:03:50.188Z,29.77
2018-06-10T10:06:18.623Z,26.90
2018-06-10T10:08:47.273Z,23.73
2018-06-10T10:11:15.913Z,25.57
2018-06-10T10:13:44.328Z,19.33
2018-06-10T10:16:12.919Z,20.60
2018-06-10T10:18:41.333Z,17.57
2018-06-10T10:21:09.735Z,17.13
2018-06-10T10:23:38.252Z,28.40
2018-06-10T10:26:06.694Z,20.20
2018-06-10T10:28:35.218Z,15.30
2018-06-10T10:31:03.647Z,14.33
2018-06-10T10:33:32.215Z,17.50
2018-06-10T10:36:00.652Z,20.77
2018-06-10T10:38:29.095Z,12.63
2018-06-10T10:40:57.512Z,11.63
2018-06-10T10:43:26.109Z,18.83
2018-06-10T10:45:54.607Z,15.27
2018-06-10T10:48:23.042Z,13.47
2018-06-10T10:50:51.430Z,14.87
2018-06-10T10:53:19.895Z,18.07
2018-06-10T10:55:48.291Z,15.80
2018-06-10T10:58:16.707Z,19.63
2018-06-10T11:00:45.143Z,14.03
2018-06-10T11:03:13.772Z,17.93
2018-06-10T11:05:42.215Z,19.17
2018-06-10T11:08:10.729Z,24.63
2018-06-10T11:10:39.175Z,15.53
2018-06-10T11:13:07.588Z,15.20
2018-06-10T11:15:36.010Z,16.57
2018-06-10T11:18:04.423Z,10.30
2018-06-10T11:20:32.817Z,11.97
2018-06-10T11:23:01.256Z,10.13
2018-06-10T11:25:29.699Z,12.57
2018-06-10T11:27:58.109Z,11.77
2018-06-10T11:30:26.547Z,12.60
2018-06-10T11:32:54.946Z,14.57
2018-06-10T11:35:23.348Z,7.87
2018-06-10T11:37:51.747Z,9.87
2018-06-10T11:40:20.155Z,12.70
2018-06-10T11:42:48.560Z,8.47
2018-06-10T11:45:17.003Z,9.40
2018-06-10T11:47:45.416Z,11.27
2018-06-10T11:50:14.691Z,14.90
2018-06-10T11:52:43.178Z,7.20
2018-06-10T11:55:11.609Z,16.67
2018-06-10T11:57:40.067Z,11.10
2018-06-10T12:00:08.703Z,9.40
2018-06-10T12:02:37.340Z,9.80
2018-06-10T12:05:05.767Z,9.07
2018-06-10T12:07:34.183Z,11.90
2018-06-10T12:10:02.627Z,8.33
2018-06-10T12:12:31.184Z,8.93
2018-06-10T12:14:59.660Z,7.20
2018-06-10T12:17:28.288Z,7.67
2018-06-10T12:19:56.723Z,8.93
2018-06-10T12:22:25.127Z,10.50
2018-06-10T12:24:53.568Z,7.80
2018-06-10T12:27:23.067Z,10.33
2018-06-10T12:29:51.471Z,7.30
2018-06-10T12:32:19.907Z,12.13
2018-06-10T12:34:48.451Z,8.00
2018-06-10T12:37:17.210Z,8.47
2018-06-10T12:39:45.651Z,6.53
2018-06-10T12:42:14.083Z,7.83
2018-06-10T12:44:42.557Z,7.13
2018-06-10T12:47:11.004Z,9.37
2018-06-10T12:56:23.719Z,6.70
2018-06-10T12:58:52.128Z,11.50
2018-06-10T13:01:20.541Z,6.97
2018-06-10T13:03:49.548Z,8.20
2018-06-10T13:06:18.158Z,7.67
2018-06-10T13:08:46.571Z,11.50
2018-06-10T13:11:14.968Z,7.70
2018-06-10T13:13:43.443Z,7.77
2018-06-10T13:16:11.847Z,11.47
2018-06-10T13:18:41.302Z,7.63
2018-06-10T13:21:09.852Z,10.30
2018-06-10T13:23:38.349Z,7.50
2018-06-10T13:26:06.795Z,6.43
2018-06-10T13:28:35.240Z,7.30
2018-06-10T13:31:03.745Z,15.90
2018-06-10T13:33:32.179Z,8.97
2018-06-10T13:36:00.591Z,9.33
2018-06-10T13:38:29.023Z,13.63
2018-06-10T13:40:57.424Z,8.63
2018-06-10T13:43:25.896Z,10.53
2018-06-10T13:45:54.320Z,11.10
2018-06-10T13:48:22.885Z,9.13
2018-06-10T13:50:51.624Z,10.13
2018-06-10T13:53:20.036Z,12.07
2018-06-10T13:55:48.495Z,7.00
2018-06-10T13:58:17.227Z,8.27
2018-06-10T14:00:45.673Z,7.77
2018-06-10T14:03:14.100Z,7.97
2018-06-10T14:05:42.519Z,8.20
2018-06-10T14:08:11.055Z,10.17
2018-06-10T14:10:39.480Z,6.30
2018-06-10T14:13:07.984Z,7.10
2018-06-10T14:15:36.387Z,8.40
2018-06-10T14:18:04.942Z,6.87
2018-06-10T14:20:33.407Z,7.87
2018-06-10T14:23:01.812Z,7.43
2018-06-10T14:25:30.298Z,10.27
2018-06-10T14:27:59.031Z,7.50
2018-06-10T14:30:27.542Z,7.80
2018-06-10T14:32:55.972Z,12.23
2018-06-10T14:35:24.395Z,13.73
2018-06-10T14:37:52.871Z,8.67
2018-06-10T14:40:21.271Z,13.40
2018-06-10T14:42:49.686Z,10.80
2018-06-10T14:45:18.132Z,7.63
2018-06-10T14:47:46.734Z,10.30
2018-06-10T14:50:15.187Z,12.93
2018-06-10T14:52:43.587Z,10.83
2018-06-10T14:55:12.034Z,10.80
2018-06-10T14:57:40.464Z,16.03
2018-06-10T15:00:08.992Z,9.97
2018-06-10T15:02:37.591Z,13.43
2018-06-10T15:05:06.433Z,9.00
2018-06-10T15:07:34.867Z,7.67
2018-06-10T15:10:03.435Z,8.37
2018-06-10T15:12:32.304Z,9.57
2018-06-10T15:15:00.724Z,7.47
2018-06-10T15:17:29.189Z,6.20
2018-06-10T15:19:57.619Z,6.90
2018-06-10T15:22:26.065Z,14.43
2018-06-10T15:24:54.542Z,7.30
2018-06-10T15:27:22.949Z,11.27
2018-06-10T15:29:51.360Z,7.43
2018-06-10T15:32:19.762Z,7.63
2018-06-10T15:34:48.198Z,11.23
2018-06-10T15:37:16.787Z,8.00
2018-06-10T15:39:45.504Z,11.43
2018-06-10T15:42:13.943Z,14.13
2018-06-10T15:44:42.402Z,9.63
2018-06-10T15:47:10.814Z,10.80
2018-06-10T15:49:39.231Z,8.57
2018-06-10T15:52:07.864Z,8.63
2018-06-10T15:54:36.266Z,7.90
2018-06-10T15:57:04.773Z,10.43
2018-06-10T15:59:33.374Z,12.63
2018-06-10T16:02:02.153Z,7.43
2018-06-10T16:04:31.152Z,8.07
2018-06-10T16:06:59.596Z,8.77
2018-06-10T16:09:28.051Z,7.50
2018-06-10T16:11:56.463Z,7.63
2018-06-10T16:14:24.924Z,7.67
2018-06-10T16:16:53.699Z,8.87
2018-06-10T16:19:22.527Z,9.53
2018-06-10T16:21:51.041Z,8.63
2018-06-10T16:24:19.458Z,21.83
2018-06-10T16:26:47.888Z,8.53
2018-06-10T16:29:16.411Z,8.60
2018-06-10T16:31:44.833Z,12.13
2018-06-10T16:34:13.309Z,12.80
2018-06-10T16:36:41.726Z,9.07
2018-06-10T16:39:10.156Z,8.30
2018-06-10T16:41:38.633Z,8.07
2018-06-10T16:44:07.115Z,8.80
2018-06-10T16:46:35.570Z,9.17
2018-06-10T16:49:04.015Z,10.33
2018-06-10T16:51:32.423Z,11.27
2018-06-10T16:54:00.920Z,8.97
2018-06-10T16:56:29.651Z,9.30
2018-06-10T16:58:58.313Z,8.63
2018-06-10T17:01:27.181Z,10.63
2018-06-10T17:03:55.707Z,8.00
2018-06-10T17:06:24.123Z,9.33
2018-06-10T17:08:52.834Z,8.90
2018-06-10T17:11:21.295Z,9.00
2018-06-10T17:13:49.816Z,9.07
2018-06-10T17:16:18.271Z,9.13
2018-06-10T17:18:46.913Z,11.40
2018-06-10T17:21:15.642Z,8.70
2018-06-10T17:23:44.323Z,18.43
2018-06-10T17:26:12.768Z,12.47
2018-06-10T17:28:41.165Z,9.27
2018-06-10T17:31:09.738Z,11.40
2018-06-10T17:35:07.521Z,10.80
2018-06-10T17:37:36.316Z,12.20
2018-06-10T17:40:05.675Z,10.07
2018-06-10T17:42:34.128Z,11.23
2018-06-10T17:45:02.739Z,10.17
2018-06-10T17:47:31.218Z,16.07
2018-06-10T17:49:59.611Z,12.03
2018-06-10T17:52:28.012Z,11.83
2018-06-10T17:54:56.477Z,11.27
2018-06-10T17:57:24.906Z,13.43
2018-06-10T17:59:53.663Z,12.50
2018-06-10T18:02:22.136Z,14.13
2018-06-10T18:04:50.947Z,15.60
2018-06-10T18:07:19.458Z,16.83
2018-06-10T18:09:47.853Z,12.43
2018-06-10T18:12:16.260Z,12.60
2018-06-10T18:14:44.667Z,12.83
2018-06-10T18:17:13.119Z,11.70
2018-06-10T18:19:41.546Z,11.77
2018-06-10T18:22:09.983Z,15.60
2018-06-10T18:24:38.392Z,13.37
2018-06-10T18:27:06.876Z,13.10
2018-06-10T18:29:35.328Z,14.13
2018-06-10T18:32:04.054Z,13.30
2018-06-10T18:34:32.491Z,14.93
2018-06-10T18:37:00.927Z,15.60
2018-06-10T18:39:29.361Z,30.70
2018-06-10T18:41:57.793Z,16.17
2018-06-10T18:44:26.502Z,25.90
2018-06-10T18:46:55.204Z,14.43
2018-06-10T18:49:23.663Z,17.30
2018-06-10T18:51:52.099Z,20.40
2018-06-10T18:54:20.617Z,16.03
2018-06-10T18:56:49.039Z,17.90
2018-06-10T18:59:17.504Z,17.03
2018-06-10T19:01:45.985Z,16.20
2018-06-10T19:04:14.426Z,18.17
2018-06-10T19:06:42.880Z,17.07
2018-06-10T19:09:11.366Z,18.33
2018-06-10T19:11:39.839Z,20.80
2018-06-10T19:14:08.403Z,17.50
2018-06-10T19:16:36.927Z,17.40
2018-06-10T19:19:05.396Z,18.00
2018-06-10T19:21:33.828Z,17.53
2018-06-10T19:24:02.253Z,21.23
2018-06-10T19:26:30.660Z,18.57
2018-06-10T19:28:59.108Z,19.60
2018-06-10T19:31:27.590Z,17.20
2018-06-10T19:33:55.993Z,19.50
2018-06-10T19:36:24.476Z,19.10
2018-06-10T19:38:52.983Z,22.40
2018-06-10T19:41:21.400Z,21.07
2018-06-10T19:43:50.152Z,24.63
2018-06-10T19:46:18.595Z,25.67
2018-06-10T19:48:47.174Z,27.77
2018-06-10T19:51:15.643Z,21.63
2018-06-10T19:53:44.103Z,16.27
2018-06-10T19:56:12.559Z,20.10
2018-06-10T19:58:41.011Z,20.40
2018-06-10T20:01:09.736Z,23.20
2018-06-10T20:03:38.435Z,20.23
2018-06-10T20:06:07.244Z,17.73
2018-06-10T20:08:35.667Z,16.33
2018-06-10T20:11:04.148Z,17.00
2018-06-10T20:13:32.776Z,19.20
2018-06-10T20:16:01.214Z,15.43
2018-06-10T20:18:29.627Z,17.60
2018-06-10T20:20:58.063Z,18.10
2018-06-10T20:23:26.455Z,18.27
2018-06-10T20:25:55.053Z,15.23
2018-06-10T20:28:23.488Z,21.33
2018-06-10T20:30:51.939Z,17.87
2018-06-10T20:33:20.863Z,17.87
2018-06-10T20:35:49.320Z,27.57
2018-06-10T20:38:17.802Z,20.63
2018-06-10T20:40:46.582Z,16.93
2018-06-10T20:43:15.018Z,16.60
2018-06-10T20:45:43.465Z,16.57
2018-06-10T20:48:11.908Z,26.20
2018-06-10T20:50:40.325Z,18.10
2018-06-10T20:53:08.712Z,19.67
2018-06-10T20:55:37.195Z,21.80
2018-06-10T20:58:05.654Z,18.40
2018-06-10T21:00:34.263Z,20.10
2018-06-10T21:03:02.771Z,21.20
2018-06-10T21:05:31.204Z,24.37
2018-06-10T21:07:59.681Z,63.13
2018-06-10T21:10:28.073Z,30.57
2018-06-10T21:12:56.620Z,23.43
2018-06-10T21:15:25.165Z,19.73
2018-06-10T21:17:53.611Z,19.10
2018-06-10T21:20:22.039Z,18.27
2018-06-10T21:22:50.449Z,22.07
2018-06-10T21:25:18.911Z,22.03
2018-06-10T21:27:47.326Z,25.60
2018-06-10T21:30:16.223Z,17.40
2018-06-10T21:32:44.653Z,22.63
2018-06-10T21:35:13.074Z,28.37
2018-06-10T21:37:41.583Z,22.67
2018-06-10T21:40:10.015Z,23.67
2018-06-10T21:42:38.458Z,18.87
2018-06-10T21:45:06.880Z,19.03
2018-06-10T21:47:35.468Z,21.70
2018-06-10T21:50:03.910Z,20.07
2018-06-10T21:52:32.331Z,23.70
2018-06-10T21:55:00.767Z,19.10
2018-06-10T21:57:29.143Z,17.30
2018-06-10T21:59:57.569Z,20.33
2018-06-10T22:02:26.205Z,17.30
2018-06-10T22:04:54.618Z,19.23
2018-06-10T22:07:23.098Z,23.70
2018-06-10T22:09:51.552Z,20.37
2018-06-10T22:12:19.952Z,22.30
2018-06-10T22:14:48.376Z,27.10
2018-06-10T22:17:16.794Z,24.57
2018-06-10T22:19:45.707Z,18.50
2018-06-10T22:22:14.140Z,30.63
2018-06-10T22:24:42.564Z,17.03
2018-06-10T22:27:11.323Z,18.30
2018-06-10T22:29:39.742Z,17.07
2018-06-10T22:32:08.230Z,24.90
2018-06-10T22:34:36.639Z,24.30
2018-06-10T22:37:05.467Z,21.13
2018-06-10T22:39:34.119Z,19.47
2018-06-10T22:42:02.556Z,19.67
2018-06-10T22:44:31.459Z,17.37
2018-06-10T22:46:59.873Z,17.67
2018-06-10T22:49:28.324Z,19.37
2018-06-10T22:51:56.767Z,22.93
2018-06-10T22:54:41.509Z,22.50
2018-06-10T22:57:10.177Z,24.67
2018-06-10T22:59:38.948Z,19.73
2018-06-10T23:02:08.559Z,18.87
2018-06-10T23:04:37.040Z,18.83
2018-06-10T23:07:05.901Z,21.60
2018-06-10T23:09:34.354Z,18.93
2018-06-10T23:12:02.820Z,27.80
2018-06-10T23:14:31.431Z,33.47
2018-06-10T23:16:59.863Z,24.47
2018-06-10T23:19:28.335Z,27.23
2018-06-10T23:21:56.760Z,21.70
2018-06-10T23:24:25.203Z,20.87
2018-06-10T23:26:53.920Z,23.80
2018-06-10T23:29:22.837Z,26.23
2018-06-10T23:31:51.243Z,25.80
2018-06-10T23:34:19.667Z,24.03
2018-06-10T23:36:48.140Z,27.60
2018-06-10T23:39:16.559Z,31.33
2018-06-10T23:41:45.048Z,21.90
2018-06-10T23:44:13.477Z,28.40
2018-06-10T23:46:41.884Z,24.80
2018-06-10T23:49:10.453Z,23.07
2018-06-10T23:51:38.887Z,25.07
2018-06-10T23:54:07.331Z,25.00
2018-06-10T23:56:35.809Z,25.23
2018-06-10T23:59:04.229Z,23.67
